NORTHEAST SUFFOLK  -  Winter Weather Advisory Winter Weather Advisory        NORTHERN NASSAU  -  Winter Weather Advisory Winter Weather Advisory        NORTHWEST SUFFOLK  -  Winter Weather Advisory Winter Weather Advisory        SOUTHEAST SUFFOLK  -  Winter Weather Advisory Winter Weather Advisory        SOUTHERN NASSAU  -  Winter Weather Advisory Winter Weather Advisory        SOUTHWEST SUFFOLK  -  Winter Weather Advisory Winter Weather Advisory      

Active alerts

Northern Nassau
  Details for Northern Nassau Winter Weather Advisory
Southern Nassau
  Details for Southern Nassau Winter Weather Advisory
Northwest Suffolk
  Details for Northwest Suffolk Winter Weather Advisory
Southwest Suffolk
  Details for Southwest Suffolk Winter Weather Advisory
Northeast Suffolk
  Details for Northeast Suffolk Winter Weather Advisory
Southeast Suffolk
  Details for Southeast Suffolk Winter Weather Advisory


WXM80 ListenWXM80 Stop

You find our weather info also at:

UK Metoffice

WeatherCloud

Weather Underground

Northeastern Weather Network

AWEKAS

Citizen Weather Observer Program (CWOP)

HAMweather, WeatherForYou, PWS Weather


Weather Underground History page Text

Daily Summary for January 2, 2016 Units:  English    Metric   Both
« Previous Day
Next Day »
Daily Weekly Monthly Yearly Custom
  High: Low: Average:
Temperature: 39.1 °F 31.1 °F 35.9 °F
Dew Point: 27.3 °F 20.7 °F 24.2 °F
Humidity: 73 % 58 % 62 %
Wind Speed: 10.8 mph 0.0 mph 4.7 mph
Wind Gust: 18.4 mph - -
Wind:- - West
Pressure: 30.07 in 29.93 in -
Precipitation: 0.00 in    
Historical Graphs
 
 
Tabular Data for January 2, 2016
Time Temperature Dew Point Pressure Wind Wind Speed Wind Gust Humidity Rainfall Rate (Hourly)
00:02 35.9 °F 25.6 °F 29.99 in WSW 4.1 mph 8.1 mph 66 % 0.00 in
00:07 35.8 °F 25.5 °F 29.99 in WSW 7.2 mph 13.8 mph 66 % 0.00 in
00:12 35.8 °F 25.5 °F 29.99 in SW 6.8 mph 11.5 mph 66 % 0.00 in
00:17 35.8 °F 25.5 °F 30.00 in WSW 2.8 mph 5.8 mph 66 % 0.00 in
00:22 35.8 °F 25.5 °F 30.00 in WNW 7.4 mph 11.5 mph 66 % 0.00 in
00:27 35.8 °F 25.5 °F 30.00 in West 2.6 mph 15.0 mph 66 % 0.00 in
00:33 35.7 °F 25.1 °F 29.99 in SW 2.9 mph 12.7 mph 65 % 0.00 in
00:38 35.7 °F 24.7 °F 29.99 in WSW 9.1 mph 16.1 mph 64 % 0.00 in
00:43 35.7 °F 24.7 °F 29.99 in WSW 7.3 mph 11.5 mph 64 % 0.00 in
00:46 35.8 °F 24.8 °F 29.99 in West 4.8 mph 10.4 mph 64 % 0.00 in
00:52 35.8 °F 24.8 °F 29.99 in WSW 4.6 mph 10.4 mph 64 % 0.00 in
00:57 35.9 °F 24.9 °F 29.99 in WSW 7.0 mph 11.5 mph 64 % 0.00 in
01:02 35.8 °F 24.4 °F 29.98 in West 8.7 mph 12.7 mph 63 % 0.00 in
01:07 35.8 °F 24.0 °F 29.99 in WSW 6.2 mph 11.5 mph 62 % 0.00 in
01:12 35.8 °F 24.0 °F 29.99 in WSW 6.6 mph 16.1 mph 62 % 0.00 in
01:17 35.8 °F 24.0 °F 29.99 in West 9.0 mph 13.0 mph 62 % 0.00 in
01:22 35.8 °F 24.4 °F 29.99 in West 4.9 mph 8.1 mph 63 % 0.00 in
01:27 35.8 °F 24.4 °F 29.99 in SW 4.1 mph 9.2 mph 63 % 0.00 in
01:32 35.7 °F 23.9 °F 29.99 in West 7.9 mph 15.0 mph 62 % 0.00 in
01:38 35.7 °F 23.9 °F 29.99 in SW 4.3 mph 18.4 mph 62 % 0.00 in
01:43 35.7 °F 23.6 °F 29.99 in SW 7.0 mph 13.8 mph 61 % 0.00 in
01:48 35.6 °F 23.9 °F 29.99 in West 5.5 mph 11.5 mph 62 % 0.00 in
01:53 35.5 °F 23.4 °F 30.00 in WNW 4.8 mph 10.4 mph 61 % 0.00 in
01:58 35.5 °F 22.6 °F 30.00 in WSW 6.9 mph 12.7 mph 59 % 0.00 in
02:03 35.4 °F 22.9 °F 30.00 in West 9.0 mph 10.4 mph 60 % 0.00 in
02:08 35.4 °F 22.9 °F 29.99 in WSW 8.0 mph 13.0 mph 60 % 0.00 in
02:13 35.4 °F 23.3 °F 30.00 in West 7.7 mph 12.7 mph 61 % 0.00 in
02:18 35.3 °F 22.8 °F 30.00 in WNW 3.1 mph 11.5 mph 60 % 0.00 in
02:23 35.3 °F 22.8 °F 30.00 in SSW 7.9 mph 13.8 mph 60 % 0.00 in
02:29 35.2 °F 23.1 °F 30.00 in SW 5.8 mph 8.1 mph 61 % 0.00 in
02:34 35.2 °F 23.1 °F 30.00 in West 5.2 mph 9.2 mph 61 % 0.00 in
02:39 35.2 °F 22.7 °F 30.00 in NNW 2.9 mph 9.2 mph 60 % 0.00 in
02:44 35.1 °F 23.0 °F 30.01 in WNW 4.9 mph 8.1 mph 61 % 0.00 in
02:49 35.1 °F 23.0 °F 30.01 in West 7.3 mph 12.7 mph 61 % 0.00 in
02:54 35.0 °F 22.9 °F 30.01 in WNW 7.8 mph 12.7 mph 61 % 0.00 in
02:59 35.0 °F 23.7 °F 30.01 in NW 2.9 mph 10.0 mph 63 % 0.00 in
03:04 35.0 °F 22.9 °F 30.01 in West 2.2 mph 8.1 mph 61 % 0.00 in
03:09 34.9 °F 22.8 °F 30.01 in WNW 6.3 mph 8.0 mph 61 % 0.00 in
03:14 34.9 °F 22.8 °F 30.00 in West 4.9 mph 9.2 mph 61 % 0.00 in
03:20 34.8 °F 22.3 °F 30.00 in NW 5.1 mph 15.0 mph 60 % 0.00 in
03:25 34.8 °F 22.7 °F 30.00 in NW 6.4 mph 11.5 mph 61 % 0.00 in
03:30 34.8 °F 23.1 °F 30.00 in WNW 6.2 mph 12.0 mph 62 % 0.00 in
03:35 34.8 °F 22.7 °F 30.00 in WSW 5.5 mph 11.5 mph 61 % 0.00 in
03:40 34.7 °F 22.6 °F 30.01 in West 4.3 mph 5.8 mph 61 % 0.00 in
03:45 34.6 °F 22.1 °F 30.00 in WNW 4.7 mph 11.5 mph 60 % 0.00 in
03:50 34.5 °F 22.0 °F 30.00 in WNW 6.6 mph 12.7 mph 60 % 0.00 in
03:55 34.4 °F 21.5 °F 30.00 in NW 7.6 mph 17.3 mph 59 % 0.00 in
04:00 34.4 °F 21.9 °F 30.00 in WNW 7.0 mph 11.5 mph 60 % 0.00 in
04:05 34.4 °F 21.9 °F 30.00 in WNW 4.9 mph 10.4 mph 60 % 0.00 in
04:11 34.3 °F 21.8 °F 30.00 in WSW 6.6 mph 11.5 mph 60 % 0.00 in
04:16 34.3 °F 21.4 °F 30.00 in West 5.3 mph 13.8 mph 59 % 0.00 in
04:21 34.2 °F 20.9 °F 30.00 in NW 7.8 mph 13.0 mph 58 % 0.00 in
04:26 34.2 °F 21.4 °F 30.00 in WNW 6.0 mph 6.0 mph 59 % 0.00 in
04:31 34.2 °F 21.4 °F 30.00 in WNW 3.8 mph 6.9 mph 59 % 0.00 in
04:36 34.1 °F 21.3 °F 30.00 in WSW 6.2 mph 12.7 mph 59 % 0.00 in
04:41 34.0 °F 21.2 °F 30.00 in WSW 7.1 mph 11.5 mph 59 % 0.00 in
04:46 34.0 °F 21.2 °F 30.00 in NW 4.6 mph 9.2 mph 59 % 0.00 in
04:51 34.0 °F 21.6 °F 30.00 in NW 4.3 mph 9.0 mph 60 % 0.00 in
04:56 34.0 °F 21.2 °F 30.01 in NW 7.2 mph 17.3 mph 59 % 0.00 in
05:02 33.9 °F 20.7 °F 30.01 in SW 3.2 mph 12.7 mph 58 % 0.00 in
05:07 33.9 °F 21.5 °F 30.01 in NW 4.4 mph 11.5 mph 60 % 0.00 in
05:12 33.8 °F 21.0 °F 30.01 in WNW 10.8 mph 17.3 mph 59 % 0.00 in
05:17 33.8 °F 21.4 °F 30.00 in West 5.1 mph 12.7 mph 60 % 0.00 in
05:22 33.8 °F 21.4 °F 30.01 in NNW 6.9 mph 13.0 mph 60 % 0.00 in
05:27 33.8 °F 21.0 °F 30.02 in NW 5.5 mph 13.0 mph 59 % 0.00 in
05:32 33.8 °F 21.8 °F 30.02 in WSW 5.4 mph 13.8 mph 61 % 0.00 in
05:37 33.8 °F 22.1 °F 30.02 in SW 6.2 mph 11.5 mph 62 % 0.00 in
05:42 33.8 °F 21.4 °F 30.02 in West 5.2 mph 8.1 mph 60 % 0.00 in
05:47 33.7 °F 21.3 °F 30.02 in West 8.1 mph 11.5 mph 60 % 0.00 in
05:53 33.7 °F 21.7 °F 30.02 in West 6.8 mph 15.0 mph 61 % 0.00 in
05:58 33.7 °F 21.7 °F 30.02 in WNW 8.2 mph 12.7 mph 61 % 0.00 in
06:03 33.7 °F 22.1 °F 30.02 in NW 9.1 mph 18.4 mph 62 % 0.00 in
06:08 33.7 °F 22.1 °F 30.02 in West 7.0 mph 11.5 mph 62 % 0.00 in
06:13 33.7 °F 22.8 °F 30.03 in WSW 3.9 mph 10.4 mph 64 % 0.00 in
06:18 33.7 °F 22.4 °F 30.03 in WNW 7.9 mph 11.5 mph 63 % 0.00 in
06:23 33.8 °F 22.9 °F 30.03 in WNW 7.1 mph 11.5 mph 64 % 0.00 in
06:28 33.7 °F 22.8 °F 30.03 in WSW 5.0 mph 11.5 mph 64 % 0.00 in
06:33 33.6 °F 22.3 °F 30.03 in WNW 3.3 mph 11.5 mph 63 % 0.00 in
06:38 33.5 °F 22.6 °F 30.03 in WNW 2.9 mph 8.1 mph 64 % 0.00 in
06:44 33.5 °F 22.6 °F 30.03 in WNW 9.1 mph 16.1 mph 64 % 0.00 in
06:49 33.5 °F 22.6 °F 30.03 in WNW 5.4 mph 15.0 mph 64 % 0.00 in
06:54 33.6 °F 22.7 °F 30.03 in WSW 10.4 mph 15.0 mph 64 % 0.00 in
06:59 33.6 °F 22.7 °F 30.04 in WSW 10.0 mph 13.8 mph 64 % 0.00 in
07:04 33.7 °F 23.2 °F 30.03 in WSW 5.1 mph 11.5 mph 65 % 0.00 in
07:09 33.7 °F 23.2 °F 30.04 in WSW 9.9 mph 18.4 mph 65 % 0.00 in
07:14 33.7 °F 23.2 °F 30.04 in WNW 7.4 mph 11.5 mph 65 % 0.00 in
07:19 33.8 °F 23.3 °F 30.04 in NNW 6.5 mph 11.5 mph 65 % 0.00 in
07:24 33.8 °F 23.6 °F 30.04 in WSW 4.1 mph 11.5 mph 66 % 0.00 in
07:29 33.7 °F 23.5 °F 30.04 in WSW 6.6 mph 11.5 mph 66 % 0.00 in
07:35 33.7 °F 23.5 °F 30.04 in WSW 5.2 mph 11.5 mph 66 % 0.00 in
07:40 33.6 °F 23.4 °F 30.04 in WSW 5.5 mph 11.5 mph 66 % 0.00 in
07:45 33.7 °F 23.5 °F 30.04 in WSW 5.8 mph 9.2 mph 66 % 0.00 in
07:50 33.7 °F 23.5 °F 30.04 in West 4.1 mph 9.2 mph 66 % 0.00 in
07:55 33.8 °F 24.0 °F 30.04 in West 6.5 mph 11.5 mph 67 % 0.00 in
07:56 33.8 °F 24.0 °F 30.04 in WNW 5.9 mph 11.5 mph 67 % 0.00 in
08:01 33.8 °F 24.0 °F 30.04 in SW 2.6 mph 9.2 mph 67 % 0.00 in
08:06 33.9 °F 24.1 °F 30.04 in WSW 5.4 mph 8.1 mph 67 % 0.00 in
08:11 33.9 °F 24.1 °F 30.05 in WSW 5.7 mph 11.0 mph 67 % 0.00 in
08:16 34.0 °F 23.8 °F 30.05 in West 7.2 mph 11.5 mph 66 % 0.00 in
08:21 34.1 °F 24.3 °F 30.05 in SW 6.4 mph 11.5 mph 67 % 0.00 in
08:26 34.3 °F 24.5 °F 30.05 in SSW 3.8 mph 11.5 mph 67 % 0.00 in
08:31 34.4 °F 24.2 °F 30.05 in West 5.4 mph 11.5 mph 66 % 0.00 in
08:37 34.5 °F 24.3 °F 30.05 in West 5.7 mph 12.7 mph 66 % 0.00 in
08:42 34.6 °F 24.4 °F 30.05 in WNW 4.3 mph 8.1 mph 66 % 0.00 in
08:47 34.7 °F 24.5 °F 30.06 in WSW 5.9 mph 10.4 mph 66 % 0.00 in
08:52 34.8 °F 24.2 °F 30.05 in WSW 4.3 mph 13.8 mph 65 % 0.00 in
08:57 34.9 °F 23.6 °F 30.05 in West 7.1 mph 12.0 mph 63 % 0.00 in
09:02 35.0 °F 24.0 °F 30.06 in WNW 7.5 mph 11.5 mph 64 % 0.00 in
09:07 35.2 °F 24.2 °F 30.06 in NW 4.2 mph 9.2 mph 64 % 0.00 in
09:12 35.3 °F 24.7 °F 30.06 in NW 5.7 mph 11.5 mph 65 % 0.00 in
09:17 35.3 °F 24.3 °F 30.06 in WNW 9.2 mph 12.0 mph 64 % 0.00 in
09:22 35.4 °F 24.4 °F 30.06 in WSW 4.4 mph 13.8 mph 64 % 0.00 in
09:28 35.5 °F 24.5 °F 30.06 in West 5.1 mph 15.0 mph 64 % 0.00 in
09:33 35.7 °F 24.3 °F 30.06 in West 7.0 mph 18.4 mph 63 % 0.00 in
09:38 35.9 °F 24.9 °F 30.06 in WSW 7.5 mph 14.0 mph 64 % 0.00 in
09:43 36.2 °F 25.2 °F 30.07 in WNW 5.9 mph 11.5 mph 64 % 0.00 in
09:48 36.3 °F 24.9 °F 30.07 in WNW 5.6 mph 12.7 mph 63 % 0.00 in
09:53 36.2 °F 24.4 °F 30.07 in West 7.7 mph 13.8 mph 62 % 0.00 in
09:58 36.1 °F 24.3 °F 30.07 in NW 5.4 mph 16.1 mph 62 % 0.00 in
10:03 36.1 °F 24.7 °F 30.07 in NNW 3.9 mph 8.0 mph 63 % 0.00 in
10:08 36.2 °F 24.8 °F 30.07 in NW 8.9 mph 13.0 mph 63 % 0.00 in
10:13 36.3 °F 24.9 °F 30.07 in West 7.9 mph 11.0 mph 63 % 0.00 in
10:19 36.5 °F 25.1 °F 30.07 in SSW 4.2 mph 7.0 mph 63 % 0.00 in
10:24 36.6 °F 24.8 °F 30.06 in NW 9.7 mph 11.5 mph 62 % 0.00 in
10:29 36.7 °F 24.9 °F 30.06 in West 5.2 mph 11.5 mph 62 % 0.00 in
10:34 36.8 °F 25.4 °F 30.06 in WNW 4.9 mph 13.0 mph 63 % 0.00 in
10:39 36.9 °F 25.1 °F 30.06 in NW 5.1 mph 9.2 mph 62 % 0.00 in
10:44 36.9 °F 25.1 °F 30.06 in WSW 5.8 mph 13.8 mph 62 % 0.00 in
10:49 37.0 °F 25.2 °F 30.05 in WNW 3.5 mph 9.2 mph 62 % 0.00 in
10:54 37.1 °F 25.3 °F 30.05 in WSW 6.7 mph 16.1 mph 62 % 0.00 in
10:59 37.1 °F 25.3 °F 30.04 in West 4.7 mph 11.0 mph 62 % 0.00 in
11:04 37.1 °F 25.7 °F 30.04 in NW 9.9 mph 12.7 mph 63 % 0.00 in
11:10 37.1 °F 25.7 °F 30.04 in West 3.4 mph 11.5 mph 63 % 0.00 in
11:15 37.1 °F 25.3 °F 30.03 in NNW 5.0 mph 10.4 mph 62 % 0.00 in
11:20 37.1 °F 25.3 °F 30.03 in WNW 4.1 mph 6.0 mph 62 % 0.00 in
11:25 37.2 °F 25.4 °F 30.02 in West 4.9 mph 12.7 mph 62 % 0.00 in
11:30 37.4 °F 25.6 °F 30.02 in West 6.3 mph 9.2 mph 62 % 0.00 in
11:35 37.5 °F 25.3 °F 30.02 in WNW 6.1 mph 10.4 mph 61 % 0.00 in
11:40 37.4 °F 25.6 °F 30.02 in NW 5.2 mph 11.0 mph 62 % 0.00 in
11:45 37.4 °F 25.6 °F 30.02 in SSW 4.4 mph 10.4 mph 62 % 0.00 in
11:50 37.3 °F 25.1 °F 30.02 in West 7.8 mph 15.0 mph 61 % 0.00 in
11:55 37.1 °F 25.3 °F 30.02 in WNW 7.1 mph 13.8 mph 62 % 0.00 in
12:01 37.2 °F 25.4 °F 30.02 in West 7.6 mph 10.4 mph 62 % 0.00 in
12:06 37.5 °F 25.7 °F 30.01 in WNW 5.8 mph 11.5 mph 62 % 0.00 in
12:11 37.8 °F 25.5 °F 30.00 in West 8.9 mph 13.8 mph 61 % 0.00 in
12:16 38.0 °F 25.3 °F 30.00 in SW 7.3 mph 10.4 mph 60 % 0.00 in
12:21 37.9 °F 25.2 °F 30.00 in WNW 5.2 mph 10.4 mph 60 % 0.00 in
12:26 37.9 °F 26.0 °F 30.00 in NW 3.6 mph 8.1 mph 62 % 0.00 in
12:31 38.4 °F 26.1 °F 29.99 in SW 4.7 mph 9.2 mph 61 % 0.00 in
12:36 38.6 °F 25.1 °F 29.99 in NW 6.0 mph 16.1 mph 58 % 0.00 in
12:41 38.6 °F 25.5 °F 29.99 in WNW 6.3 mph 9.0 mph 59 % 0.00 in
12:46 38.6 °F 25.5 °F 29.98 in WSW 6.3 mph 11.5 mph 59 % 0.00 in
12:52 38.7 °F 25.2 °F 29.98 in West 7.3 mph 11.5 mph 58 % 0.00 in
12:57 38.6 °F 25.1 °F 29.98 in WNW 4.6 mph 11.5 mph 58 % 0.00 in
13:02 38.6 °F 25.5 °F 29.99 in NNW 5.2 mph 11.5 mph 59 % 0.00 in
13:07 38.4 °F 25.3 °F 29.99 in WNW 4.0 mph 12.7 mph 59 % 0.00 in
13:12 38.3 °F 25.6 °F 29.99 in NW 7.6 mph 11.5 mph 60 % 0.00 in
13:17 38.4 °F 25.7 °F 29.99 in NW 4.3 mph 11.5 mph 60 % 0.00 in
13:22 38.5 °F 25.8 °F 29.98 in NNW 5.5 mph 9.2 mph 60 % 0.00 in
13:27 38.8 °F 26.1 °F 29.98 in WNW 4.7 mph 7.0 mph 60 % 0.00 in
13:32 38.9 °F 25.8 °F 29.98 in WNW 2.9 mph 8.1 mph 59 % 0.00 in
13:37 38.8 °F 26.1 °F 29.97 in NW 6.3 mph 8.1 mph 60 % 0.00 in
13:43 38.6 °F 25.5 °F 29.97 in NNW 4.5 mph 10.4 mph 59 % 0.00 in
13:48 38.6 °F 25.9 °F 29.97 in WNW 5.3 mph 10.4 mph 60 % 0.00 in
13:53 38.6 °F 25.9 °F 29.97 in WSW 3.0 mph 6.9 mph 60 % 0.00 in
13:58 38.6 °F 25.1 °F 29.97 in WSW 6.4 mph 9.2 mph 58 % 0.00 in
14:03 38.7 °F 25.2 °F 29.97 in NNW 5.4 mph 12.0 mph 58 % 0.00 in
14:08 38.8 °F 25.3 °F 29.97 in WSW 6.2 mph 9.2 mph 58 % 0.00 in
14:13 38.9 °F 25.4 °F 29.97 in West 4.6 mph 6.9 mph 58 % 0.00 in
14:18 39.0 °F 25.9 °F 29.96 in NNW 2.7 mph 4.6 mph 59 % 0.00 in
14:23 39.1 °F 25.6 °F 29.97 in WNW 4.6 mph 10.4 mph 58 % 0.00 in
14:28 39.0 °F 25.5 °F 29.96 in WNW 4.2 mph 10.4 mph 58 % 0.00 in
14:34 39.1 °F 25.6 °F 29.96 in West 4.1 mph 6.9 mph 58 % 0.00 in
14:39 39.0 °F 25.5 °F 29.96 in WNW 5.4 mph 8.1 mph 58 % 0.00 in
14:44 39.0 °F 25.5 °F 29.96 in West 4.8 mph 10.4 mph 58 % 0.00 in
14:49 38.9 °F 25.8 °F 29.96 in WNW 4.5 mph 6.9 mph 59 % 0.00 in
14:54 38.9 °F 25.8 °F 29.96 in NW 2.7 mph 6.0 mph 59 % 0.00 in
14:59 38.9 °F 25.8 °F 29.96 in West 3.7 mph 5.8 mph 59 % 0.00 in
15:04 38.8 °F 25.7 °F 29.96 in West 2.5 mph 3.5 mph 59 % 0.00 in
15:09 38.8 °F 25.3 °F 29.96 in SW 2.3 mph 5.8 mph 58 % 0.00 in
15:15 38.8 °F 25.3 °F 29.96 in WNW 4.8 mph 9.2 mph 58 % 0.00 in
15:20 38.7 °F 25.2 °F 29.96 in WNW 3.6 mph 6.9 mph 58 % 0.00 in
15:25 38.6 °F 25.1 °F 29.97 in West 4.7 mph 8.1 mph 58 % 0.00 in
15:30 38.5 °F 25.0 °F 29.97 in West 3.0 mph 8.1 mph 58 % 0.00 in
15:35 38.4 °F 25.3 °F 29.96 in North 0.9 mph 3.0 mph 59 % 0.00 in
15:40 38.4 °F 25.7 °F 29.97 in West 1.2 mph 4.0 mph 60 % 0.00 in
15:45 38.4 °F 25.3 °F 29.96 in WNW 4.0 mph 8.1 mph 59 % 0.00 in
15:50 38.3 °F 25.6 °F 29.97 in WNW 3.9 mph 5.8 mph 60 % 0.00 in
15:55 38.2 °F 25.5 °F 29.97 in WNW 5.1 mph 6.9 mph 60 % 0.00 in
16:00 38.2 °F 25.5 °F 29.97 in West 5.4 mph 9.2 mph 60 % 0.00 in
16:06 38.1 °F 25.4 °F 29.97 in WSW 3.9 mph 7.0 mph 60 % 0.00 in
16:11 38.0 °F 25.7 °F 29.97 in WNW 2.1 mph 5.8 mph 61 % 0.00 in
16:16 38.0 °F 25.7 °F 29.97 in WSW 3.4 mph 6.9 mph 61 % 0.00 in
16:21 38.0 °F 25.7 °F 29.97 in WSW 3.4 mph 4.6 mph 61 % 0.00 in
16:26 37.9 °F 25.6 °F 29.97 in WSW 2.0 mph 6.9 mph 61 % 0.00 in
16:31 37.9 °F 26.0 °F 29.97 in WNW 1.6 mph 3.0 mph 62 % 0.00 in
16:36 37.9 °F 26.0 °F 29.97 in WSW 3.6 mph 8.1 mph 62 % 0.00 in
16:41 37.9 °F 26.0 °F 29.97 in WNW 0.3 mph 3.0 mph 62 % 0.00 in
16:46 37.9 °F 26.0 °F 29.97 in WNW 2.2 mph 4.6 mph 62 % 0.00 in
16:57 38.0 °F 26.1 °F 29.97 in WNW 0.8 mph 3.5 mph 62 % 0.00 in
17:02 38.0 °F 26.1 °F 29.97 in WNW 3.5 mph 5.8 mph 62 % 0.00 in
17:07 38.1 °F 26.2 °F 29.97 in SW 0.6 mph 3.5 mph 62 % 0.00 in
17:12 38.1 °F 26.2 °F 29.97 in WSW 2.6 mph 5.8 mph 62 % 0.00 in
17:17 38.2 °F 26.3 °F 29.97 in West 2.5 mph 3.5 mph 62 % 0.00 in
17:22 38.2 °F 25.9 °F 29.97 in WSW 2.2 mph 3.5 mph 61 % 0.00 in
17:27 38.3 °F 26.4 °F 29.97 in West 0.6 mph 3.5 mph 62 % 0.00 in
17:32 38.3 °F 26.0 °F 29.97 in SW 4.6 mph 6.0 mph 61 % 0.00 in
17:37 38.4 °F 26.1 °F 29.97 in West 1.0 mph 4.0 mph 61 % 0.00 in
17:42 38.4 °F 26.1 °F 29.97 in WNW 3.3 mph 7.0 mph 61 % 0.00 in
17:48 38.6 °F 25.9 °F 29.97 in West 5.3 mph 10.4 mph 60 % 0.00 in
17:53 38.6 °F 25.9 °F 29.97 in West 2.5 mph 6.9 mph 60 % 0.00 in
17:58 38.7 °F 25.6 °F 29.97 in WSW 4.1 mph 11.5 mph 59 % 0.00 in
18:03 38.8 °F 25.7 °F 29.97 in NW 7.6 mph 12.7 mph 59 % 0.00 in
18:08 38.8 °F 25.7 °F 29.97 in NW 3.7 mph 6.0 mph 59 % 0.00 in
18:13 38.9 °F 25.4 °F 29.97 in SW 5.4 mph 9.2 mph 58 % 0.00 in
18:18 38.9 °F 25.8 °F 29.98 in WNW 4.1 mph 9.2 mph 59 % 0.00 in
18:23 38.9 °F 25.8 °F 29.98 in WNW 2.6 mph 5.8 mph 59 % 0.00 in
18:28 39.0 °F 25.9 °F 29.98 in West 4.9 mph 6.9 mph 59 % 0.00 in
18:33 39.0 °F 25.5 °F 29.98 in WSW 8.4 mph 14.0 mph 58 % 0.00 in
18:39 39.1 °F 26.0 °F 29.98 in NW 4.7 mph 8.1 mph 59 % 0.00 in
18:44 39.0 °F 26.7 °F 29.98 in WNW 1.9 mph 4.6 mph 61 % 0.00 in
18:49 39.0 °F 27.1 °F 29.98 in West 4.3 mph 6.9 mph 62 % 0.00 in
18:54 38.8 °F 27.3 °F 29.98 in WSW 6.3 mph 10.4 mph 63 % 0.00 in
18:59 38.6 °F 25.9 °F 29.99 in West 7.7 mph 12.7 mph 60 % 0.00 in
19:04 38.4 °F 25.7 °F 29.99 in SW 4.6 mph 7.0 mph 60 % 0.00 in
19:09 38.2 °F 25.1 °F 29.99 in SW 5.3 mph 10.4 mph 59 % 0.00 in
19:14 37.9 °F 24.4 °F 29.99 in West 3.5 mph 8.0 mph 58 % 0.00 in
19:19 37.7 °F 24.2 °F 29.99 in WNW 6.4 mph 11.5 mph 58 % 0.00 in
19:24 37.4 °F 24.0 °F 29.99 in WNW 4.5 mph 11.5 mph 58 % 0.00 in
19:30 37.2 °F 24.2 °F 29.99 in WSW 7.0 mph 14.0 mph 59 % 0.00 in
19:35 36.9 °F 23.5 °F 29.98 in WSW 3.4 mph 11.5 mph 58 % 0.00 in
19:40 36.7 °F 23.3 °F 29.98 in WSW 7.0 mph 13.8 mph 58 % 0.00 in
19:45 36.6 °F 23.6 °F 29.98 in NW 6.6 mph 12.7 mph 59 % 0.00 in
19:50 36.5 °F 23.9 °F 29.98 in West 6.2 mph 12.7 mph 60 % 0.00 in
19:55 36.4 °F 23.8 °F 29.98 in NW 3.3 mph 5.8 mph 60 % 0.00 in
20:00 36.3 °F 23.7 °F 29.98 in WNW 5.5 mph 11.5 mph 60 % 0.00 in
20:05 36.2 °F 23.6 °F 29.99 in NW 3.2 mph 9.2 mph 60 % 0.00 in
20:10 36.2 °F 24.0 °F 29.98 in West 4.4 mph 5.8 mph 61 % 0.00 in
20:15 36.1 °F 24.3 °F 29.98 in West 4.9 mph 6.0 mph 62 % 0.00 in
20:21 36.1 °F 23.9 °F 29.98 in NNE 4.0 mph 9.2 mph 61 % 0.00 in
20:26 36.0 °F 23.8 °F 29.98 in WSW 3.0 mph 5.8 mph 61 % 0.00 in
20:31 36.0 °F 24.2 °F 29.98 in WNW 6.9 mph 11.5 mph 62 % 0.00 in
20:36 35.9 °F 24.1 °F 29.98 in West 4.0 mph 6.9 mph 62 % 0.00 in
20:41 35.9 °F 24.5 °F 29.98 in WSW 3.4 mph 5.8 mph 63 % 0.00 in
20:46 35.8 °F 24.4 °F 29.98 in WSW 3.3 mph 5.8 mph 63 % 0.00 in
20:51 35.8 °F 24.0 °F 29.98 in WNW 1.0 mph 2.3 mph 62 % 0.00 in
20:56 35.7 °F 24.3 °F 29.98 in WSW 3.3 mph 6.0 mph 63 % 0.00 in
21:06 35.7 °F 23.9 °F 29.97 in WNW 2.2 mph 7.0 mph 62 % 0.00 in
21:12 35.6 °F 23.9 °F 29.97 in WNW 1.1 mph 3.5 mph 62 % 0.00 in
21:17 35.6 °F 24.2 °F 29.97 in WSW 2.0 mph 3.5 mph 63 % 0.00 in
21:22 35.5 °F 24.1 °F 29.97 in West 1.5 mph 3.5 mph 63 % 0.00 in
21:27 35.5 °F 24.1 °F 29.97 in SSW 1.0 mph 2.3 mph 63 % 0.00 in
21:32 35.3 °F 24.0 °F 29.97 in Calm   1.2 mph 63 % 0.00 in
21:37 35.2 °F 23.9 °F 29.96 in SW 0.7 mph 1.2 mph 63 % 0.00 in
21:42 35.1 °F 23.8 °F 29.96 in Calm   1.2 mph 63 % 0.00 in
21:47 34.9 °F 23.9 °F 29.96 in Calm     64 % 0.00 in
21:52 34.7 °F 23.8 °F 29.96 in SW 0.8 mph 1.2 mph 64 % 0.00 in
21:57 34.3 °F 23.7 °F 29.96 in SW 0.8 mph 2.3 mph 65 % 0.00 in
22:03 34.1 °F 23.6 °F 29.96 in SW 1.2 mph 2.3 mph 65 % 0.00 in
22:08 33.7 °F 23.5 °F 29.96 in Calm   1.2 mph 66 % 0.00 in
22:13 33.5 °F 23.4 °F 29.96 in SSW 0.1 mph 1.2 mph 66 % 0.00 in
22:18 33.3 °F 23.2 °F 29.96 in SSW 0.4 mph 2.0 mph 66 % 0.00 in
22:23 33.0 °F 22.9 °F 29.96 in SSW 0.3 mph 2.3 mph 66 % 0.00 in
22:28 32.7 °F 22.9 °F 29.95 in SW 0.9 mph 2.3 mph 67 % 0.00 in
22:33 32.5 °F 22.8 °F 29.95 in SSW 0.5 mph 3.5 mph 67 % 0.00 in
22:38 32.3 °F 22.9 °F 29.95 in South 1.5 mph 2.3 mph 68 % 0.00 in
22:43 32.1 °F 23.1 °F 29.94 in Calm     69 % 0.00 in
22:48 32.0 °F 23.0 °F 29.94 in Calm   1.2 mph 69 % 0.00 in
22:54 31.8 °F 22.8 °F 29.94 in SSW 0.3 mph 1.2 mph 69 % 0.00 in
22:59 31.7 °F 22.7 °F 29.94 in SSW 1.0 mph 3.5 mph 69 % 0.00 in
23:04 31.6 °F 22.9 °F 29.94 in SSW 1.5 mph 3.5 mph 70 % 0.00 in
23:09 31.5 °F 22.8 °F 29.94 in SSW 1.2 mph 3.5 mph 70 % 0.00 in
23:14 31.4 °F 23.1 °F 29.94 in SSW 0.3 mph 2.0 mph 71 % 0.00 in
23:19 31.3 °F 23.0 °F 29.94 in SSW 1.1 mph 3.5 mph 71 % 0.00 in
23:24 31.2 °F 22.9 °F 29.94 in SSW 1.3 mph 2.3 mph 71 % 0.00 in
23:29 31.2 °F 23.2 °F 29.93 in South 0.3 mph 1.2 mph 72 % 0.00 in
23:34 31.1 °F 23.1 °F 29.93 in South 1.1 mph 2.3 mph 72 % 0.00 in
23:39 31.1 °F 23.5 °F 29.93 in WSW 0.6 mph 2.3 mph 73 % 0.00 in
23:45 31.1 °F 23.5 °F 29.93 in SSW 1.3 mph 3.5 mph 73 % 0.00 in
23:50 31.1 °F 23.5 °F 29.93 in SSW 3.5 mph 6.9 mph 73 % 0.00 in
23:55 31.3 °F 23.6 °F 29.93 in SSW 0.9 mph 3.5 mph 73 % 0.00 in
Crab Meadow Weather
Compliments of Weather Underground - 3 mb

Script developed by  Jim McMurry - jmcmurry@mwt.net Adapted for the template by  Wim van der Kuil - Leuven-Template.eu

Extremes: In Wyndham, Australia, the temperature reached 90 degrees F for 333 days in 1946.